Danville, West Virginia
Current Conditions -  °F | °C
As of 12:54 AM on Tuesday 27 Jan 2015 (Local Time) from KCRW Reporting Station
Broken Clouds Broken Clouds  
Wind Chill: 17°   Ceiling: 2600
Heat Index: 23°   Visibility: 10mi
Dew Point: 18°   Wind: 5mph
Humidity: 81%   Direction: 310°NW
Pressure: 29.89"   Gusts: NA
Location:  38.08°N, 81.83°W
Report Text: KCRW 270554Z 31004KT 10SM BKN026 M05/M08 A2989 RMK AO2 SLP133 BKN V SCT 60000 T10501078 11028 21050 58003
Loading
Personal Weather Stations






























Interactive Weather Map New forecast layout! Learn more

10-Day Weather Forecast

Advertisements
Track Severe Weather on mobile